sensor_id;sensor_type;location;lat;lon;timestamp;pressure;altitude;pressure_sealevel;temperature;humidity
70921;BME280;58572;48.110;19.838;2023-03-20T00:00:40;97826.31;;;8.93;57.11
70921;BME280;58572;48.110;19.838;2023-03-20T00:03:10;97821.16;;;8.96;55.81
70921;BME280;58572;48.110;19.838;2023-03-20T00:05:38;97823.59;;;8.98;56.44
70921;BME280;58572;48.110;19.838;2023-03-20T00:08:05;97821.44;;;8.95;55.61
70921;BME280;58572;48.110;19.838;2023-03-20T00:10:35;97794.09;;;8.76;55.83
70921;BME280;58572;48.110;19.838;2023-03-20T00:13:03;97745.38;;;8.46;57.47
70921;BME280;58572;48.110;19.838;2023-03-20T00:15:34;97817.38;;;8.87;56.49
70921;BME280;58572;48.110;19.838;2023-03-20T00:18:02;97814.13;;;8.85;56.00
70921;BME280;58572;48.110;19.838;2023-03-20T00:20:31;97814.13;;;8.95;55.71
70921;BME280;58572;48.110;19.838;2023-03-20T00:22:58;97809.50;;;8.96;54.56
70921;BME280;58572;48.110;19.838;2023-03-20T00:25:25;97818.41;;;9.12;54.13
70921;BME280;58572;48.110;19.838;2023-03-20T00:27:52;97809.00;;;9.69;52.58
70921;BME280;58572;48.110;19.838;2023-03-20T00:30:28;97805.25;;;9.54;53.47
70921;BME280;58572;48.110;19.838;2023-03-20T00:32:56;97808.38;;;9.12;54.93
70921;BME280;58572;48.110;19.838;2023-03-20T00:35:26;97810.09;;;8.62;56.59
70921;BME280;58572;48.110;19.838;2023-03-20T00:37:56;97675.50;;;7.72;55.78
70921;BME280;58572;48.110;19.838;2023-03-20T00:40:27;97813.63;;;8.48;57.01
70921;BME280;58572;48.110;19.838;2023-03-20T00:42:58;97812.81;;;8.42;56.96
70921;BME280;58572;48.110;19.838;2023-03-20T00:45:26;97813.09;;;8.46;56.36
70921;BME280;58572;48.110;19.838;2023-03-20T00:47:54;97814.19;;;8.35;56.63
70921;BME280;58572;48.110;19.838;2023-03-20T00:50:25;97811.47;;;8.35;56.22
70921;BME280;58572;48.110;19.838;2023-03-20T00:52:56;97808.97;;;8.28;57.17
70921;BME280;58572;48.110;19.838;2023-03-20T00:55:25;97804.63;;;8.12;57.40
70921;BME280;58572;48.110;19.838;2023-03-20T00:57:54;97807.59;;;8.05;57.17
70921;BME280;58572;48.110;19.838;2023-03-20T01:00:33;97807.59;;;8.10;56.50
70921;BME280;58572;48.110;19.838;2023-03-20T01:03:10;97810.28;;;7.95;57.04
70921;BME280;58572;48.110;19.838;2023-03-20T01:05:37;97807.31;;;7.96;57.31
70921;BME280;58572;48.110;19.838;2023-03-20T01:08:11;97791.56;;;7.68;57.82
70921;BME280;58572;48.110;19.838;2023-03-20T01:10:38;97808.91;;;7.77;57.55
70921;BME280;58572;48.110;19.838;2023-03-20T01:13:08;97813.53;;;7.87;56.74
70921;BME280;58572;48.110;19.838;2023-03-20T01:15:38;97809.19;;;7.91;56.92
70921;BME280;58572;48.110;19.838;2023-03-20T01:18:07;97805.44;;;8.02;56.69
70921;BME280;58572;48.110;19.838;2023-03-20T01:20:35;97814.06;;;7.89;56.91
70921;BME280;58572;48.110;19.838;2023-03-20T01:23:03;97810.78;;;7.72;57.38
70921;BME280;58572;48.110;19.838;2023-03-20T01:25:32;97803.81;;;7.96;56.90
70921;BME280;58572;48.110;19.838;2023-03-20T01:27:59;97811.91;;;7.91;57.05
70921;BME280;58572;48.110;19.838;2023-03-20T01:30:30;97801.06;;;7.76;57.40
70921;BME280;58572;48.110;19.838;2023-03-20T01:32:59;97809.44;;;7.74;58.62
70921;BME280;58572;48.110;19.838;2023-03-20T01:35:28;97807.03;;;7.83;57.33
70921;BME280;58572;48.110;19.838;2023-03-20T01:37:55;97803.22;;;7.84;57.17
70921;BME280;58572;48.110;19.838;2023-03-20T01:40:29;97790.78;;;7.78;58.07
70921;BME280;58572;48.110;19.838;2023-03-20T01:42:59;97799.44;;;7.80;57.93
70921;BME280;58572;48.110;19.838;2023-03-20T01:45:31;97792.41;;;7.79;57.95
70921;BME280;58572;48.110;19.838;2023-03-20T01:48:04;97787.00;;;7.79;57.52
70921;BME280;58572;48.110;19.838;2023-03-20T01:50:38;97795.66;;;7.86;56.97
70921;BME280;58572;48.110;19.838;2023-03-20T01:53:09;97789.16;;;7.82;57.11
70921;BME280;58572;48.110;19.838;2023-03-20T01:55:38;97790.25;;;7.86;57.66
70921;BME280;58572;48.110;19.838;2023-03-20T01:58:12;97789.72;;;7.84;57.11
70921;BME280;58572;48.110;19.838;2023-03-20T02:00:40;97785.09;;;7.79;57.86
70921;BME280;58572;48.110;19.838;2023-03-20T02:03:08;97477.81;;;5.99;56.90
70921;BME280;58572;48.110;19.838;2023-03-20T02:05:36;97788.38;;;8.01;56.89
70921;BME280;58572;48.110;19.838;2023-03-20T02:08:21;97785.38;;;7.88;57.49
70921;BME280;58572;48.110;19.838;2023-03-20T02:10:50;97782.69;;;7.93;57.51
70921;BME280;58572;48.110;19.838;2023-03-20T02:13:18;97790.81;;;8.03;56.71
70921;BME280;58572;48.110;19.838;2023-03-20T02:15:55;97781.59;;;7.94;56.89
70921;BME280;58572;48.110;19.838;2023-03-20T02:18:23;97780.53;;;8.00;57.79
70921;BME280;58572;48.110;19.838;2023-03-20T02:27:07;97764.81;;;8.07;57.58
70921;BME280;58572;48.110;19.838;2023-03-20T02:39:01;97771.03;;;7.97;58.04
70921;BME280;58572;48.110;19.838;2023-03-20T02:41:36;97772.13;;;7.96;57.30
70921;BME280;58572;48.110;19.838;2023-03-20T02:44:09;97774.00;;;7.81;58.00
70921;BME280;58572;48.110;19.838;2023-03-20T02:46:44;97760.19;;;7.72;58.20
70921;BME280;58572;48.110;19.838;2023-03-20T02:49:18;97657.75;;;6.93;58.13
70921;BME280;58572;48.110;19.838;2023-03-20T02:51:56;97774.78;;;7.66;59.05
70921;BME280;58572;48.110;19.838;2023-03-20T02:54:32;97775.56;;;7.56;58.49
70921;BME280;58572;48.110;19.838;2023-03-20T02:57:05;97776.91;;;7.44;57.99
70921;BME280;58572;48.110;19.838;2023-03-20T02:59:40;97781.97;;;7.30;58.98
70921;BME280;58572;48.110;19.838;2023-03-20T03:02:11;97774.34;;;7.22;59.62
70921;BME280;58572;48.110;19.838;2023-03-20T03:04:46;97764.09;;;7.24;59.61
70921;BME280;58572;48.110;19.838;2023-03-20T03:07:18;97781.34;;;7.13;59.51
70921;BME280;58572;48.110;19.838;2023-03-20T03:09:51;97770.00;;;7.16;58.53
70921;BME280;58572;48.110;19.838;2023-03-20T03:12:21;97770.56;;;7.23;57.50
70921;BME280;58572;48.110;19.838;2023-03-20T03:14:51;97774.22;;;6.91;59.64
70921;BME280;58572;48.110;19.838;2023-03-20T03:17:21;97782.88;;;6.93;58.90
70921;BME280;58572;48.110;19.838;2023-03-20T03:19:51;97772.06;;;6.93;59.36
70921;BME280;58572;48.110;19.838;2023-03-20T03:22:20;97766.06;;;6.86;59.62
70921;BME280;58572;48.110;19.838;2023-03-20T03:24:49;97763.94;;;6.93;59.13
70921;BME280;58572;48.110;19.838;2023-03-20T03:27:19;97762.56;;;6.86;59.06
70921;BME280;58572;48.110;19.838;2023-03-20T03:29:51;97770.38;;;6.82;59.45
70921;BME280;58572;48.110;19.838;2023-03-20T03:32:31;97700.53;;;6.54;58.97
70921;BME280;58572;48.110;19.838;2023-03-20T03:35:00;97762.00;;;6.84;58.79
70921;BME280;58572;48.110;19.838;2023-03-20T03:37:41;97758.00;;;6.91;58.54
70921;BME280;58572;48.110;19.838;2023-03-20T03:40:19;97750.44;;;6.93;59.19
70921;BME280;58572;48.110;19.838;2023-03-20T03:42:53;97753.13;;;6.88;59.40
70921;BME280;58572;48.110;19.838;2023-03-20T03:45:25;97754.44;;;6.81;59.60
70921;BME280;58572;48.110;19.838;2023-03-20T03:47:57;97751.72;;;6.81;59.66
70921;BME280;58572;48.110;19.838;2023-03-20T03:50:30;97747.66;;;6.78;59.46
70921;BME280;58572;48.110;19.838;2023-03-20T03:53:01;97749.81;;;6.76;59.28
70921;BME280;58572;48.110;19.838;2023-03-20T03:55:35;97557.78;;;5.36;60.08
70921;BME280;58572;48.110;19.838;2023-03-20T03:58:05;97664.41;;;5.86;60.41
70921;BME280;58572;48.110;19.838;2023-03-20T04:00:34;97756.81;;;6.72;59.82
70921;BME280;58572;48.110;19.838;2023-03-20T04:03:04;97753.53;;;6.65;59.50
70921;BME280;58572;48.110;19.838;2023-03-20T04:05:35;97763.16;;;6.51;59.66
70921;BME280;58572;48.110;19.838;2023-03-20T04:08:04;97743.19;;;6.52;58.79
70921;BME280;58572;48.110;19.838;2023-03-20T04:10:33;97753.72;;;6.53;59.41
70921;BME280;58572;48.110;19.838;2023-03-20T04:13:00;97741.41;;;6.25;61.05
70921;BME280;58572;48.110;19.838;2023-03-20T04:15:27;97758.25;;;6.43;60.75
70921;BME280;58572;48.110;19.838;2023-03-20T04:17:54;97761.38;;;6.66;59.35
70921;BME280;58572;48.110;19.838;2023-03-20T04:20:22;97763.16;;;6.51;59.72
70921;BME280;58572;48.110;19.838;2023-03-20T04:22:49;97763.53;;;6.64;60.10
70921;BME280;58572;48.110;19.838;2023-03-20T04:25:18;97773.44;;;6.54;60.61
70921;BME280;58572;48.110;19.838;2023-03-20T04:27:47;97771.88;;;6.63;59.41
70921;BME280;58572;48.110;19.838;2023-03-20T04:30:15;97771.09;;;6.67;59.23
70921;BME280;58572;48.110;19.838;2023-03-20T04:32:42;97770.78;;;6.59;59.70
70921;BME280;58572;48.110;19.838;2023-03-20T04:35:09;97770.97;;;6.47;59.97
70921;BME280;58572;48.110;19.838;2023-03-20T04:37:36;97770.16;;;6.47;60.46
70921;BME280;58572;48.110;19.838;2023-03-20T04:40:04;97771.28;;;6.51;60.35
70921;BME280;58572;48.110;19.838;2023-03-20T04:42:31;97769.66;;;6.50;60.50
70921;BME280;58572;48.110;19.838;2023-03-20T04:44:59;97775.19;;;6.70;58.94
70921;BME280;58572;48.110;19.838;2023-03-20T04:47:26;97735.06;;;6.47;59.45
70921;BME280;58572;48.110;19.838;2023-03-20T04:49:53;97771.13;;;6.72;59.33
70921;BME280;58572;48.110;19.838;2023-03-20T04:52:20;97776.84;;;6.76;59.48
70921;BME280;58572;48.110;19.838;2023-03-20T04:54:47;97779.56;;;6.81;59.47
70921;BME280;58572;48.110;19.838;2023-03-20T04:57:14;97782.22;;;6.76;59.61
70921;BME280;58572;48.110;19.838;2023-03-20T04:59:42;97780.13;;;6.83;58.93
70921;BME280;58572;48.110;19.838;2023-03-20T05:02:10;97715.59;;;6.45;58.91
70921;BME280;58572;48.110;19.838;2023-03-20T05:04:40;97775.34;;;7.05;58.05
70921;BME280;58572;48.110;19.838;2023-03-20T05:07:07;97773.91;;;6.88;59.17
70921;BME280;58572;48.110;19.838;2023-03-20T05:09:34;97771.47;;;6.86;58.86
70921;BME280;58572;48.110;19.838;2023-03-20T05:12:01;97725.31;;;6.40;59.89
70921;BME280;58572;48.110;19.838;2023-03-20T05:14:28;97778.00;;;6.90;59.12
70921;BME280;58572;48.110;19.838;2023-03-20T05:16:55;97778.03;;;7.00;58.50
70921;BME280;58572;48.110;19.838;2023-03-20T05:19:23;97774.78;;;6.98;58.70
70921;BME280;58572;48.110;19.838;2023-03-20T05:21:50;97744.69;;;6.80;59.78
70921;BME280;58572;48.110;19.838;2023-03-20T05:24:17;97780.66;;;7.38;58.64
70921;BME280;58572;48.110;19.838;2023-03-20T05:26:45;97778.63;;;7.90;55.44
70921;BME280;58572;48.110;19.838;2023-03-20T05:29:12;97792.44;;;8.24;55.67
70921;BME280;58572;48.110;19.838;2023-03-20T05:31:39;97800.41;;;7.38;58.86
70921;BME280;58572;48.110;19.838;2023-03-20T05:34:06;97789.16;;;7.77;58.02
70921;BME280;58572;48.110;19.838;2023-03-20T05:36:35;97787.56;;;8.21;54.76
70921;BME280;58572;48.110;19.838;2023-03-20T05:39:02;97784.06;;;8.16;54.26
70921;BME280;58572;48.110;19.838;2023-03-20T05:41:30;97788.66;;;8.15;54.51
70921;BME280;58572;48.110;19.838;2023-03-20T05:43:57;97792.44;;;8.04;55.01
70921;BME280;58572;48.110;19.838;2023-03-20T05:46:24;97798.59;;;7.07;58.09
70921;BME280;58572;48.110;19.838;2023-03-20T05:48:52;97788.63;;;7.95;55.68
70921;BME280;58572;48.110;19.838;2023-03-20T05:51:19;97742.69;;;6.60;59.71
70921;BME280;58572;48.110;19.838;2023-03-20T05:53:47;97784.72;;;7.40;56.93
70921;BME280;58572;48.110;19.838;2023-03-20T05:56:14;97790.69;;;7.42;60.13
70921;BME280;58572;48.110;19.838;2023-03-20T05:58:41;97787.00;;;7.79;59.87
70921;BME280;58572;48.110;19.838;2023-03-20T06:01:08;97787.28;;;7.92;59.62
70921;BME280;58572;48.110;19.838;2023-03-20T06:03:36;97787.03;;;8.24;57.35
70921;BME280;58572;48.110;19.838;2023-03-20T06:06:03;97675.75;;;7.50;55.95
70921;BME280;58572;48.110;19.838;2023-03-20T06:08:30;97800.91;;;8.38;57.33
70921;BME280;58572;48.110;19.838;2023-03-20T06:10:59;97799.00;;;8.69;55.24
70921;BME280;58572;48.110;19.838;2023-03-20T06:13:26;97792.94;;;9.08;53.42
70921;BME280;58572;48.110;19.838;2023-03-20T06:15:53;97807.03;;;7.83;59.62
70921;BME280;58572;48.110;19.838;2023-03-20T06:18:20;97795.75;;;8.57;54.78
70921;BME280;58572;48.110;19.838;2023-03-20T06:20:51;97797.25;;;9.14;52.65
70921;BME280;58572;48.110;19.838;2023-03-20T06:23:19;97789.06;;;9.29;51.87
70921;BME280;58572;48.110;19.838;2023-03-20T06:25:46;97798.28;;;9.33;51.60
70921;BME280;58572;48.110;19.838;2023-03-20T06:28:15;97815.78;;;8.76;53.09
70921;BME280;58572;48.110;19.838;2023-03-20T06:30:42;97816.81;;;8.29;54.69
70921;BME280;58572;48.110;19.838;2023-03-20T06:33:09;97827.09;;;8.17;57.24
70921;BME280;58572;48.110;19.838;2023-03-20T06:35:36;97828.94;;;7.76;57.23
70921;BME280;58572;48.110;19.838;2023-03-20T06:38:03;97823.31;;;8.28;54.74
70921;BME280;58572;48.110;19.838;2023-03-20T06:40:30;97829.78;;;7.97;59.12
70921;BME280;58572;48.110;19.838;2023-03-20T06:42:57;97825.22;;;8.18;59.28
70921;BME280;58572;48.110;19.838;2023-03-20T06:45:26;97807.06;;;8.23;59.31
70921;BME280;58572;48.110;19.838;2023-03-20T06:47:54;97826.91;;;8.44;60.00
70921;BME280;58572;48.110;19.838;2023-03-20T06:50:21;97830.66;;;8.99;58.18
70921;BME280;58572;48.110;19.838;2023-03-20T06:52:48;97826.50;;;9.37;56.79
70921;BME280;58572;48.110;19.838;2023-03-20T06:55:15;97822.31;;;9.65;56.40
70921;BME280;58572;48.110;19.838;2023-03-20T06:57:43;97769.91;;;9.70;53.46
70921;BME280;58572;48.110;19.838;2023-03-20T07:00:12;97820.72;;;10.52;53.10
70921;BME280;58572;48.110;19.838;2023-03-20T07:02:40;97823.28;;;9.89;54.36
70921;BME280;58572;48.110;19.838;2023-03-20T07:05:08;97820.38;;;9.71;54.01
70921;BME280;58572;48.110;19.838;2023-03-20T07:07:35;97823.09;;;9.71;51.69
70921;BME280;58572;48.110;19.838;2023-03-20T07:10:03;97820.84;;;9.88;51.77
70921;BME280;58572;48.110;19.838;2023-03-20T07:12:30;97826.47;;;9.97;52.32
70921;BME280;58572;48.110;19.838;2023-03-20T07:14:57;97819.69;;;9.99;51.48
70921;BME280;58572;48.110;19.838;2023-03-20T07:17:24;97823.19;;;10.05;51.57
70921;BME280;58572;48.110;19.838;2023-03-20T07:19:53;97822.72;;;10.37;52.24
70921;BME280;58572;48.110;19.838;2023-03-20T07:22:24;97814.38;;;10.91;51.75
70921;BME280;58572;48.110;19.838;2023-03-20T07:24:51;97815.38;;;11.24;49.46
70921;BME280;58572;48.110;19.838;2023-03-20T07:27:19;97817.94;;;11.39;47.64
70921;BME280;58572;48.110;19.838;2023-03-20T07:29:46;97815.34;;;11.53;48.55
70921;BME280;58572;48.110;19.838;2023-03-20T07:32:13;97815.66;;;11.51;49.65
70921;BME280;58572;48.110;19.838;2023-03-20T07:34:41;97816.38;;;11.81;46.80
70921;BME280;58572;48.110;19.838;2023-03-20T07:37:09;97805.41;;;12.24;46.32
70921;BME280;58572;48.110;19.838;2023-03-20T07:39:36;97803.63;;;12.33;46.70
70921;BME280;58572;48.110;19.838;2023-03-20T07:42:04;97809.56;;;12.72;45.44
70921;BME280;58572;48.110;19.838;2023-03-20T07:44:31;97800.47;;;13.51;45.39
70921;BME280;58572;48.110;19.838;2023-03-20T07:46:58;97777.00;;;13.77;44.36
70921;BME280;58572;48.110;19.838;2023-03-20T07:49:25;97801.47;;;13.82;44.07
70921;BME280;58572;48.110;19.838;2023-03-20T07:51:52;97802.22;;;14.10;43.71
70921;BME280;58572;48.110;19.838;2023-03-20T07:54:23;97802.81;;;14.21;43.06
70921;BME280;58572;48.110;19.838;2023-03-20T07:56:50;97803.03;;;14.11;42.47
70921;BME280;58572;48.110;19.838;2023-03-20T07:59:17;97802.00;;;14.20;41.63
70921;BME280;58572;48.110;19.838;2023-03-20T08:01:44;97804.72;;;14.20;40.91
70921;BME280;58572;48.110;19.838;2023-03-20T08:04:11;97806.84;;;14.59;41.32
70921;BME280;58572;48.110;19.838;2023-03-20T08:06:38;97803.75;;;14.75;41.68
70921;BME280;58572;48.110;19.838;2023-03-20T08:09:06;97806.94;;;14.99;38.98
70921;BME280;58572;48.110;19.838;2023-03-20T08:11:34;97788.34;;;15.18;39.61
70921;BME280;58572;48.110;19.838;2023-03-20T08:14:01;97805.72;;;15.14;36.05
70921;BME280;58572;48.110;19.838;2023-03-20T08:16:28;97814.19;;;14.73;39.66
70921;BME280;58572;48.110;19.838;2023-03-20T08:18:55;97811.13;;;14.16;39.85
70921;BME280;58572;48.110;19.838;2023-03-20T08:21:25;97818.44;;;14.06;41.24
70921;BME280;58572;48.110;19.838;2023-03-20T08:23:53;97817.53;;;14.47;37.38
70921;BME280;58572;48.110;19.838;2023-03-20T08:26:20;97813.22;;;15.61;36.61
70921;BME280;58572;48.110;19.838;2023-03-20T08:28:49;97806.31;;;15.64;35.58
70921;BME280;58572;48.110;19.838;2023-03-20T08:31:16;97818.34;;;16.54;37.26
70921;BME280;58572;48.110;19.838;2023-03-20T08:33:44;97822.47;;;15.52;35.95
70921;BME280;58572;48.110;19.838;2023-03-20T08:36:12;97820.44;;;16.14;37.67
70921;BME280;58572;48.110;19.838;2023-03-20T08:38:45;97830.19;;;15.41;36.87
70921;BME280;58572;48.110;19.838;2023-03-20T08:41:12;97630.06;;;14.81;36.61
70921;BME280;58572;48.110;19.838;2023-03-20T08:43:40;97826.47;;;15.06;34.18
70921;BME280;58572;48.110;19.838;2023-03-20T08:46:09;97806.94;;;16.70;35.28
70921;BME280;58572;48.110;19.838;2023-03-20T08:48:36;97774.94;;;18.17;33.89
70921;BME280;58572;48.110;19.838;2023-03-20T08:51:03;97802.28;;;17.55;32.20
70921;BME280;58572;48.110;19.838;2023-03-20T08:53:31;97810.59;;;16.56;33.04
70921;BME280;58572;48.110;19.838;2023-03-20T08:55:58;97814.97;;;16.32;35.59
70921;BME280;58572;48.110;19.838;2023-03-20T08:58:25;97802.69;;;17.83;34.32
70921;BME280;58572;48.110;19.838;2023-03-20T09:00:52;97815.66;;;17.65;33.94
70921;BME280;58572;48.110;19.838;2023-03-20T09:03:20;97808.22;;;18.45;30.80
70921;BME280;58572;48.110;19.838;2023-03-20T09:05:48;97810.25;;;18.78;32.69
70921;BME280;58572;48.110;19.838;2023-03-20T09:08:17;97806.09;;;18.30;33.06
70921;BME280;58572;48.110;19.838;2023-03-20T09:10:45;97806.00;;;18.60;32.48
70921;BME280;58572;48.110;19.838;2023-03-20T09:13:12;97804.34;;;18.05;31.83
70921;BME280;58572;48.110;19.838;2023-03-20T09:15:39;97806.78;;;17.77;34.78
70921;BME280;58572;48.110;19.838;2023-03-20T09:18:06;97776.94;;;17.88;33.66
70921;BME280;58572;48.110;19.838;2023-03-20T09:20:35;97800.44;;;18.68;31.97
70921;BME280;58572;48.110;19.838;2023-03-20T09:23:02;97760.56;;;18.74;31.18
70921;BME280;58572;48.110;19.838;2023-03-20T09:25:29;97799.13;;;19.20;32.57
70921;BME280;58572;48.110;19.838;2023-03-20T09:27:56;97805.34;;;18.63;31.43
70921;BME280;58572;48.110;19.838;2023-03-20T09:30:23;97762.16;;;16.86;31.68
70921;BME280;58572;48.110;19.838;2023-03-20T09:32:50;97802.28;;;18.97;32.90
70921;BME280;58572;48.110;19.838;2023-03-20T09:35:17;97798.47;;;19.35;30.08
70921;BME280;58572;48.110;19.838;2023-03-20T09:37:46;97798.38;;;18.24;30.74
70921;BME280;58572;48.110;19.838;2023-03-20T09:40:23;97804.75;;;17.01;31.18
70921;BME280;58572;48.110;19.838;2023-03-20T09:42:57;97800.22;;;18.52;30.94
70921;BME280;58572;48.110;19.838;2023-03-20T09:45:40;97802.84;;;18.70;31.89
70921;BME280;58572;48.110;19.838;2023-03-20T09:48:14;97801.34;;;17.89;30.27
70921;BME280;58572;48.110;19.838;2023-03-20T09:50:48;97694.22;;;18.46;30.84
70921;BME280;58572;48.110;19.838;2023-03-20T09:53:25;97810.91;;;16.98;33.98
70921;BME280;58572;48.110;19.838;2023-03-20T09:55:54;97799.28;;;18.48;32.50
70921;BME280;58572;48.110;19.838;2023-03-20T09:58:24;97777.06;;;17.53;32.95
70921;BME280;58572;48.110;19.838;2023-03-20T10:00:55;97793.44;;;17.49;30.68
70921;BME280;58572;48.110;19.838;2023-03-20T10:03:26;97680.22;;;17.85;32.12
70921;BME280;58572;48.110;19.838;2023-03-20T10:05:58;97789.78;;;19.94;31.59
70921;BME280;58572;48.110;19.838;2023-03-20T10:08:32;97788.63;;;19.58;31.92
70921;BME280;58572;48.110;19.838;2023-03-20T10:11:14;97800.97;;;19.16;31.98
70921;BME280;58572;48.110;19.838;2023-03-20T10:13:57;97799.94;;;18.75;31.80
70921;BME280;58572;48.110;19.838;2023-03-20T10:16:34;97807.38;;;16.20;32.27
70921;BME280;58572;48.110;19.838;2023-03-20T10:19:12;97796.34;;;18.54;31.10
70921;BME280;58572;48.110;19.838;2023-03-20T10:21:42;97794.56;;;17.86;32.25
70921;BME280;58572;48.110;19.838;2023-03-20T10:24:16;97795.84;;;18.93;31.77
70921;BME280;58572;48.110;19.838;2023-03-20T10:26:50;97789.16;;;17.99;30.13
70921;BME280;58572;48.110;19.838;2023-03-20T10:29:25;97783.13;;;18.68;30.89
70921;BME280;58572;48.110;19.838;2023-03-20T10:32:02;97788.53;;;18.56;31.27
70921;BME280;58572;48.110;19.838;2023-03-20T10:34:47;97783.34;;;18.96;31.17
70921;BME280;58572;48.110;19.838;2023-03-20T10:37:29;97783.41;;;18.75;32.53
70921;BME280;58572;48.110;19.838;2023-03-20T10:40:15;97788.81;;;18.42;32.70
70921;BME280;58572;48.110;19.838;2023-03-20T10:42:47;97779.06;;;20.57;30.64
70921;BME280;58572;48.110;19.838;2023-03-20T10:45:24;97776.84;;;20.22;30.38
70921;BME280;58572;48.110;19.838;2023-03-20T10:47:56;97784.19;;;20.43;31.11
70921;BME280;58572;48.110;19.838;2023-03-20T10:50:31;97779.78;;;20.54;30.88
70921;BME280;58572;48.110;19.838;2023-03-20T10:53:02;97772.03;;;20.87;29.66
70921;BME280;58572;48.110;19.838;2023-03-20T10:55:35;97773.84;;;20.39;29.73
70921;BME280;58572;48.110;19.838;2023-03-20T10:58:13;97761.03;;;21.66;29.46
70921;BME280;58572;48.110;19.838;2023-03-20T11:00:43;97751.19;;;21.84;29.06
70921;BME280;58572;48.110;19.838;2023-03-20T11:03:19;97751.63;;;22.02;29.45
70921;BME280;58572;48.110;19.838;2023-03-20T11:05:51;97715.63;;;21.51;27.24
70921;BME280;58572;48.110;19.838;2023-03-20T11:08:21;97751.06;;;21.61;27.62
70921;BME280;58572;48.110;19.838;2023-03-20T11:10:59;97708.19;;;19.32;30.18
70921;BME280;58572;48.110;19.838;2023-03-20T11:13:30;97768.94;;;20.08;31.01
70921;BME280;58572;48.110;19.838;2023-03-20T11:16:08;97743.53;;;21.78;29.15
70921;BME280;58572;48.110;19.838;2023-03-20T11:18:36;97760.78;;;19.27;28.54
70921;BME280;58572;48.110;19.838;2023-03-20T11:21:03;97755.41;;;19.55;29.62
70921;BME280;58572;48.110;19.838;2023-03-20T11:23:32;97684.41;;;20.88;26.39
70921;BME280;58572;48.110;19.838;2023-03-20T11:26:03;97750.75;;;18.65;32.26
70921;BME280;58572;48.110;19.838;2023-03-20T11:28:32;97739.34;;;21.05;30.40
70921;BME280;58572;48.110;19.838;2023-03-20T11:31:03;97739.09;;;21.57;27.91
70921;BME280;58572;48.110;19.838;2023-03-20T11:33:33;97754.25;;;18.74;29.53
70921;BME280;58572;48.110;19.838;2023-03-20T11:36:10;97726.34;;;21.53;26.26
70921;BME280;58572;48.110;19.838;2023-03-20T11:38:42;97732.03;;;21.13;27.38
70921;BME280;58572;48.110;19.838;2023-03-20T11:41:18;97725.00;;;22.52;25.62
70921;BME280;58572;48.110;19.838;2023-03-20T11:43:48;97733.25;;;21.94;27.14
70921;BME280;58572;48.110;19.838;2023-03-20T11:46:15;97725.72;;;22.29;28.57
70921;BME280;58572;48.110;19.838;2023-03-20T11:48:43;97718.97;;;22.27;27.87
70921;BME280;58572;48.110;19.838;2023-03-20T11:51:14;97727.22;;;20.94;29.60
70921;BME280;58572;48.110;19.838;2023-03-20T11:53:57;97669.22;;;21.60;28.11
70921;BME280;58572;48.110;19.838;2023-03-20T11:56:29;97721.94;;;22.38;25.63
70921;BME280;58572;48.110;19.838;2023-03-20T11:59:00;97734.63;;;20.22;28.62
70921;BME280;58572;48.110;19.838;2023-03-20T12:01:37;97726.84;;;20.95;29.21
70921;BME280;58572;48.110;19.838;2023-03-20T12:04:11;97713.78;;;21.24;28.98
70921;BME280;58572;48.110;19.838;2023-03-20T12:06:44;97704.47;;;21.63;28.80
70921;BME280;58572;48.110;19.838;2023-03-20T12:12:08;97697.63;;;22.70;27.56
70921;BME280;58572;48.110;19.838;2023-03-20T12:14:44;97701.91;;;21.90;28.61
70921;BME280;58572;48.110;19.838;2023-03-20T12:17:37;97671.84;;;21.88;25.31
70921;BME280;58572;48.110;19.838;2023-03-20T12:23:09;97692.06;;;22.47;28.11
70921;BME280;58572;48.110;19.838;2023-03-20T12:25:43;97691.94;;;21.34;28.06
70921;BME280;58572;48.110;19.838;2023-03-20T12:28:20;97687.34;;;21.93;28.48
70921;BME280;58572;48.110;19.838;2023-03-20T12:30:58;97695.13;;;20.46;29.73
70921;BME280;58572;48.110;19.838;2023-03-20T12:33:40;97691.63;;;19.07;31.38
70921;BME280;58572;48.110;19.838;2023-03-20T12:36:13;97670.31;;;24.49;24.82
70921;BME280;58572;48.110;19.838;2023-03-20T12:38:41;97655.31;;;23.15;26.53
70921;BME280;58572;48.110;19.838;2023-03-20T12:41:14;97678.22;;;23.12;25.58
70921;BME280;58572;48.110;19.838;2023-03-20T12:46:42;97661.47;;;23.05;25.79
70921;BME280;58572;48.110;19.838;2023-03-20T12:49:20;97672.94;;;21.33;27.92
70921;BME280;58572;48.110;19.838;2023-03-20T12:51:55;97602.13;;;22.21;27.35
70921;BME280;58572;48.110;19.838;2023-03-20T12:54:39;97663.25;;;21.93;27.69
70921;BME280;58572;48.110;19.838;2023-03-20T12:57:18;97665.53;;;22.26;26.24
70921;BME280;58572;48.110;19.838;2023-03-20T13:00:02;97632.88;;;22.36;25.09
70921;BME280;58572;48.110;19.838;2023-03-20T13:02:42;97672.09;;;22.38;27.06
70921;BME280;58572;48.110;19.838;2023-03-20T13:05:19;97672.03;;;21.29;25.80
70921;BME280;58572;48.110;19.838;2023-03-20T13:07:52;97679.91;;;19.47;29.34
70921;BME280;58572;48.110;19.838;2023-03-20T13:10:28;97666.09;;;20.67;28.71
70921;BME280;58572;48.110;19.838;2023-03-20T13:13:07;97664.47;;;20.51;29.28
70921;BME280;58572;48.110;19.838;2023-03-20T13:15:53;97641.34;;;24.50;25.30
70921;BME280;58572;48.110;19.838;2023-03-20T13:18:34;97654.28;;;22.39;27.96
70921;BME280;58572;48.110;19.838;2023-03-20T13:21:06;97651.84;;;22.14;27.42
70921;BME280;58572;48.110;19.838;2023-03-20T13:23:41;97646.31;;;23.21;26.49
70921;BME280;58572;48.110;19.838;2023-03-20T13:26:24;97649.59;;;23.31;26.89
70921;BME280;58572;48.110;19.838;2023-03-20T13:29:00;97654.53;;;19.54;28.55
70921;BME280;58572;48.110;19.838;2023-03-20T13:31:43;97657.16;;;20.43;28.67
70921;BME280;58572;48.110;19.838;2023-03-20T13:34:26;97648.25;;;22.75;28.10
70921;BME280;58572;48.110;19.838;2023-03-20T13:37:04;97647.44;;;22.33;28.27